Tiempo atmosférico en la estación meteorológica de Ainsa, Huesca (610 m.)



Fecha
DESCASC
Temp. máxima en grados centígrados (hora)
DESCASC
Temp. mínima en grados centígrados (hora)
DESCASC
Temp. media en grados centígrados
DESCASC
Racha de viento máxima en m/sg (hora)
DESCASC
Velocidad máxima media en intervalos de 10 minutos(hora)
DESCASC
Precipitaciones diarias en mm
DESCASC
Precipitaciones de 00:00 a 06:00 en mm
DESCASC
Precipitaciones de 06:00 a 12:00 en mm
DESCASC
Precipitaciones de 12:00 a 18:00 en mm
DESCASC
Precipitaciones de 18:00 a 24:00 en mm
DESCASC
17-08-2018 26.8 (14:50) 14.8 (07:20) 20.8 10.83 (15:20) 6.67 (15:40) 2 0.2 0 1.8 0
16-08-2018 30.8 (17:30) 15.9 (07:10) 23.3 18.89 (20:30) 13.61 (20:30) 12.8 0 0 0 12.8
15-08-2018 29.3 (16:10) 13.7 (07:10) 21.5 7.22 (17:30) 5.28 (17:40) 0 0 0 0 0
14-08-2018 28.4 (16:30) 13.3 (07:40) 20.8 8.33 (20:20) 6.11 (18:00) 0 0 0 0 0
13-08-2018 28.8 (16:20) 15 (06:40) 21.9 10 (18:10) 6.39 (18:10) 0.2 0.2 0 0 0
12-08-2018 33.3 (15:30) 17.2 (00:00) 25.3 12.22 (17:10) 8.89 (17:10) 21.6 0 0 17.2 4.4
11-08-2018 32.2 (14:50) 16.3 (00:00) 24.3 8.89 (15:50) 6.11 (15:40) 0.2 0 0 0.2 0
10-08-2018 28.5 (16:50) 17.4 (00:00) 22.9 8.33 (15:40) 5.83 (15:30) 0.6 0.6 0 0 0
09-08-2018 32.5 (17:30) 18.7 (00:00) 25.6 12.22 (13:10) 8.89 (13:00) 0.2 0.2 0 0 0
08-08-2018 31.5 (17:50) 15.8 (00:00) 23.7 13.61 (19:10) 7.78 (19:10) 0 0 0 0 0
07-08-2018 35.7 (15:20) 17.5 (00:00) 26.6 20 (20:10) 10.83 (18:50) 0.8 0 0 0 0.8
06-08-2018 36.2 (15:20) 19.8 (00:00) 28 8.89 (19:00) 5.83 (19:30) 0 0 0 0 0
05-08-2018 35.4 (17:20) 20.3 (00:00) 27.9 9.17 (17:30) 6.67 (16:40) 0 0 0 0 0
04-08-2018 37.8 (17:10) 19.3 (07:30) 28.5 9.17 (18:30) 6.67 (18:30) 0 0 0 0 0
03-08-2018 36.3 (16:10) 19.6 (00:00) 27.9 10.83 (17:40) 7.5 (17:40) 0 0 0 0 0
02-08-2018 35.9 (14:40) 19.1 (00:00) 27.5 10.28 (16:20) 7.22 (15:50) 0 0 0 0 0
01-08-2018 34.6 (14:30) 18.5 (07:40) 26.5 7.78 (17:20) 5.83 (17:00) 0 0 0 0 0
31-07-2018 34.3 (15:00) 19.6 (00:00) 26.9 7.78 (16:40) 5.28 (15:40) 0 0 0 0 0
30-07-2018 33.9 (15:10) 18 (00:00) 26 8.06 (16:20) 5.28 (18:40) 0 0 0 0 0
29-07-2018 33.3 (14:50) 17.1 (00:00) 25.2 6.67 (17:00) 4.72 (19:10) 0 0 0 0 0
28-07-2018 32.7 (16:50) 17.3 (00:00) 25 7.5 (14:50) 5 (16:20) 0 0 0 0 0
27-07-2018 33.8 (14:30) 18.7 (00:00) 26.3 10.28 (17:50) 7.78 (19:10) 0 0 0 0 0
26-07-2018 34.7 (18:10) 17.5 (00:00) 26.1 7.78 (18:30) 5 (19:30) 0 0 0 0 0
25-07-2018 32.8 (15:00) 17.1 (00:00) 24.9 10.83 (16:50) 7.5 (16:50) 0 0 0 0 0
24-07-2018 32.6 (13:30) 17.4 (00:00) 25 10.56 (14:50) 7.22 (15:00) 4.2 0 0 4.2 0
23-07-2018 31.4 (17:20) 13.8 (00:00) 22.6 7.5 (14:50) 5.28 (15:00) 0 0 0 0 0
22-07-2018 26.4 (15:20) 15.1 (00:00) 20.8 10.28 (16:00) 7.78 (14:10) 0 0 0 0 0
21-07-2018 27.5 (18:10) 14.9 (00:00) 21.2 10.83 (14:00) 7.5 (18:30) 0 0 0 0 0
20-07-2018 30.2 (16:40) 17.3 (00:00) 23.8 10.56 (15:50) 7.5 (16:10) 0 0 0 0 0

Gráficas

Temp. máximas Temp. mínimas Temp. medias Precipitaciones Rachas de viento máximas Velocidades máximas media en intervalos de 10 minutos

Datos horarios

Fecha y hora oficial Temperatura (ºC) Velocidad del viento (km/h) Dirección del viento Racha (km/h) Dirección de racha Precipitación (mm) Presión (hPa) Tendencia (hPa) Humedad (%)
2018-08-18 23:00:00 18.4 6 Noroeste 12 Noroeste 0 -- -- 78
2018-08-18 22:00:00 20.3 6 Noroeste 10 Noroeste 0 -- -- 71
2018-08-18 21:00:00 22.8 6 Sudeste 15 Sudeste 0 -- -- 59
2018-08-18 20:00:00 24.2 13 Sudeste 19 Sudeste 0 -- -- 54
2018-08-18 19:00:00 25 17 Sudeste 22 Sudeste 0 -- -- 53
2018-08-18 18:00:00 25.6 16 Sudeste 26 Sudeste 0 -- -- 52
2018-08-18 17:00:00 24.9 19 Sudeste 27 Sudeste 0 -- -- 54
2018-08-18 16:00:00 25.5 17 Sudeste 24 Sudeste 0 -- -- 58
2018-08-18 15:00:00 25.2 18 Sudeste 25 Sudeste 0 -- -- 61
2018-08-18 14:00:00 24.8 15 Sudeste 23 Sudeste 0 -- -- 64
2018-08-18 13:00:00 23.6 13 Sudeste 18 Sudeste 0 -- -- 65
2018-08-18 12:00:00 22.4 13 Sudeste 18 Sudeste 0 -- -- 64
2018-08-18 11:00:00 20.5 4 Sudeste 10 Sudeste 0 -- -- 67
2018-08-18 10:00:00 17.8 2 Sudoeste 8 Norte 0 -- -- 79
2018-08-18 09:00:00 15 2 Noroeste 12 Norte 0 -- -- 93
2018-08-18 08:00:00 12.8 2 Norte 9 Noroeste 0 -- -- 96
2018-08-18 07:00:00 12.8 4 Oeste 10 Norte 0 -- -- 97
2018-08-18 06:00:00 13.4 4 Norte 12 Oeste 0 -- -- 94
2018-08-18 05:00:00 13.9 8 Noroeste 10 Noroeste 0 -- -- 94
2018-08-18 04:00:00 14.3 7 Noroeste 10 Noroeste 0 -- -- 94
2018-08-18 03:00:00 15 6 Oeste 13 Oeste 0 -- -- 90
2018-08-18 02:00:00 15.3 10 Noroeste 14 Noroeste 0 -- -- 93
2018-08-18 01:00:00 16.2 8 Oeste 11 Oeste 0 -- -- 92
2018-08-18 00:00:00 17.2 5 Noroeste 9 Norte 0 -- -- 96
2018-08-17 23:00:00 17.8 6 Sur 21 Sudeste 0 -- -- 93
2018-08-17 22:00:00 18.9 4 Este 6 Este 0 -- -- 88
2018-08-17 21:00:00 19.7 0 Calma 8 Oeste 0 -- -- 83
2018-08-17 20:00:00 20.8 4 Oeste 10 Sudeste 0 -- -- 80
2018-08-17 19:00:00 20.2 6 Sur 13 Sudoeste 0 -- -- 76
2018-08-17 18:00:00 19.1 8 Sudoeste 17 Oeste 0 -- -- 84
2018-08-17 17:00:00 18.9 5 Oeste 19 Norte 0 -- -- 86
2018-08-17 16:00:00 17.8 11 Norte 39 Norte 1.8 -- -- 78
2018-08-17 15:00:00 25.5 13 Sudeste 21 Sudeste 0 -- -- 56
2018-08-17 14:00:00 23.9 13 Sudeste 23 Sudeste 0 -- -- 70
2018-08-17 13:00:00 25.7 12 Sudeste 21 Sudeste 0 -- -- 69
2018-08-17 12:00:00 23.2 10 Sudeste 15 Sudeste 0 -- -- 73
2018-08-17 11:00:00 21.2 6 Sudeste 10 Sudeste 0 -- -- 80
2018-08-17 10:00:00 18.9 3 Sur 9 Norte 0 -- -- 90
2018-08-17 09:00:00 16.7 4 Norte 14 Noroeste 0 -- -- 96
2018-08-17 08:00:00 15 9 Noroeste 17 Noroeste 0 -- -- 99
2018-08-17 07:00:00 15 7 Norte 10 Norte 0 -- -- 98
2018-08-17 06:00:00 15.4 5 Norte 8 Norte 0 -- -- 98
2018-08-17 05:00:00 15.9 9 Norte 17 Noroeste 0 -- -- 98
2018-08-17 04:00:00 16.4 8 Norte 15 Noroeste 0 -- -- 99
2018-08-17 03:00:00 16.9 3 Oeste 9 Norte 0 -- -- 99
2018-08-17 02:00:00 17.2 6 Norte 12 Oeste 0 -- -- 99
2018-08-17 01:00:00 17.4 3 Este 10 Oeste 0.2 -- -- 99
2018-08-17 00:00:00 17.3 6 Sudeste 12 Sur 0 -- -- 99
2018-08-16 23:00:00 17.3 5 Sur 13 Nordeste 0.4 -- -- 98
2018-08-16 22:00:00 17.2 9 Oeste 27 Oeste 2.6 -- -- 97
2018-08-16 21:00:00 17.1 16 Oeste 68 Oeste 9.8 -- -- 93
2018-08-16 20:00:00 25.4 8 Norte 32 Norte 0 -- -- 47
2018-08-16 19:00:00 27.3 22 Norte 41 Norte 0 -- -- 46
2018-08-16 18:00:00 29.4 19 Sudeste 32 Sudeste 0 -- -- 43
2018-08-16 17:00:00 30.5 13 Sudeste 23 Sudeste 0 -- -- 41
2018-08-16 16:00:00 30.2 17 Sudeste 23 Sudeste 0 -- -- 43
2018-08-16 15:00:00 30.4 13 Sudeste 17 Sudeste 0 -- -- 39
2018-08-16 14:00:00 29.1 10 Sudeste 19 Sur 0 -- -- 44
2018-08-16 13:00:00 28.1 8 Sudeste 14 Este 0 -- -- 51
2018-08-16 12:00:00 25.5 5 Sudeste 10 Este 0 -- -- 57
2018-08-16 11:00:00 23.4 3 Sudoeste 8 Oeste 0 -- -- 64
2018-08-16 10:00:00 20.7 0 Calma 5 Noroeste 0 -- -- 72
2018-08-16 09:00:00 18 2 Oeste 7 Oeste 0 -- -- 82
2018-08-16 08:00:00 16.2 0 Calma 9 Noroeste 0 -- -- 86
2018-08-16 07:00:00 16 8 Noroeste 11 Noroeste 0 -- -- 86
2018-08-16 06:00:00 16.4 6 Noroeste 12 Noroeste 0 -- -- 85
2018-08-16 05:00:00 16.5 8 Noroeste 12 Noroeste 0 -- -- 85
2018-08-16 04:00:00 16.9 9 Oeste 14 Oeste 0 -- -- 83
2018-08-16 03:00:00 17.6 6 Noroeste 9 Noroeste 0 -- -- 80
2018-08-16 02:00:00 18.3 4 Noroeste 10 Oeste 0 -- -- 77
2018-08-16 01:00:00 19.2 7 Oeste 12 Noroeste 0 -- -- 74
2018-08-16 00:00:00 20 7 Oeste 12 Oeste 0 -- -- 71
2018-08-15 23:00:00 21.4 8 Noroeste 10 Oeste 0 -- -- 66
2018-08-15 22:00:00 24.2 4 Este 10 Sudeste 0 -- -- 55
2018-08-15 21:00:00 26 9 Sudeste 19 Sudeste 0 -- -- 48
2018-08-15 20:00:00 27.6 14 Sudeste 20 Sudeste 0 -- -- 45
2018-08-15 19:00:00 28.3 17 Sudeste 23 Sudeste 0 -- -- 45
2018-08-15 18:00:00 28.8 18 Sudeste 26 Sudeste 0 -- -- 44
2018-08-15 17:00:00 29 18 Sudeste 24 Sudeste 0 -- -- 44
2018-08-15 16:00:00 29.1 17 Sudeste 24 Sudeste 0 -- -- 41
2018-08-15 15:00:00 28.8 14 Sudeste 21 Sudeste 0 -- -- 43
2018-08-15 14:00:00 27.9 10 Sudeste 17 Sudeste 0 -- -- 46
2018-08-15 13:00:00 26.7 11 Sudeste 18 Sudeste 0 -- -- 48
2018-08-15 12:00:00 25 12 Sudeste 18 Sudeste 0 -- -- 51
2018-08-15 11:00:00 23.2 7 Sudeste 12 Sudeste 0 -- -- 54
2018-08-15 10:00:00 19.6 2 Oeste 8 Nordeste 0 -- -- 61
2018-08-15 09:00:00 16.4 3 Norte 8 Nordeste 0 -- -- 74
2018-08-15 08:00:00 14 3 Oeste 13 Noroeste 0 -- -- 82
2018-08-15 07:00:00 14 7 Norte 11 Norte 0 -- -- 79
2018-08-15 06:00:00 14.6 9 Noroeste 13 Noroeste 0 -- -- 78
2018-08-15 05:00:00 15.2 6 Noroeste 12 Noroeste 0 -- -- 78
2018-08-15 04:00:00 16 7 Oeste 13 Noroeste 0 -- -- 76
2018-08-15 03:00:00 16.6 8 Noroeste 12 Oeste 0 -- -- 73
2018-08-15 02:00:00 17.5 8 Noroeste 10 Oeste 0 -- -- 69
2018-08-15 01:00:00 18.6 8 Oeste 13 Oeste 0 -- -- 71
2018-08-15 00:00:00 19.4 6 Noroeste 15 Oeste 0 -- -- 70
2018-08-14 23:00:00 21.8 4 Norte 9 Norte 0 -- -- 56
2018-08-14 22:00:00 23.5 4 Sudoeste 25 Sudeste 0 -- -- 56
2018-08-14 21:00:00 24.9 16 Sudeste 30 Sudeste 0 -- -- 51
2018-08-14 20:00:00 26.5 20 Sudeste 27 Sudeste 0 -- -- 50
2018-08-14 19:00:00 27.4 21 Sudeste 27 Sudeste 0 -- -- 46
2018-08-14 18:00:00 27.9 22 Sudeste 29 Sudeste 0 -- -- 44
2018-08-14 17:00:00 28.4 19 Sudeste 29 Sudeste 0 -- -- 44
2018-08-14 16:00:00 27.9 21 Sudeste 28 Sudeste 0 -- -- 49
2018-08-14 15:00:00 27 19 Sudeste 27 Sudeste 0 -- -- 52
2018-08-14 14:00:00 26.9 17 Sudeste 23 Este 0 -- -- 53
2018-08-14 13:00:00 25.8 14 Sudeste 20 Sudeste 0 -- -- 57
2018-08-14 12:00:00 24.2 14 Sudeste 20 Sudeste 0 -- -- 59
2018-08-14 11:00:00 22.5 8 Sudeste 12 Sudeste 0 -- -- 57
2018-08-14 10:00:00 19.2 4 Este 9 Este 0 -- -- 67
2018-08-14 09:00:00 16.2 3 Norte 16 Norte 0 -- -- 78
2018-08-14 08:00:00 13.6 8 Norte 14 Norte 0 -- -- 90
2018-08-14 07:00:00 13.5 8 Noroeste 16 Norte 0 -- -- 89
2018-08-14 06:00:00 14.5 5 Noroeste 15 Norte 0 -- -- 83
2018-08-14 05:00:00 15.1 10 Norte 18 Norte 0 -- -- 82
2018-08-14 04:00:00 15.5 11 Noroeste 15 Noroeste 0 -- -- 82
2018-08-14 03:00:00 16.5 10 Norte 17 Norte 0 -- -- 77
2018-08-14 02:00:00 17.1 14 Norte 17 Norte 0 -- -- 75
2018-08-14 01:00:00 18.4 12 Noroeste 19 Norte 0 -- -- 70
2018-08-14 00:00:00 20 4 Oeste 17 Sudoeste 0 -- -- 67
2018-08-13 23:00:00 21.2 9 Sudoeste 18 Oeste 0 -- -- 63
2018-08-13 22:00:00 23.1 8 Oeste 12 Noroeste 0 -- -- 56
2018-08-13 21:00:00 25.1 6 Sur 12 Oeste 0 -- -- 67
2018-08-13 20:00:00 27.3 7 Sudoeste 13 Sudoeste 0 -- -- 54
2018-08-13 19:00:00 26.5 6 Sur 36 Sudeste 0 -- -- 56
2018-08-13 18:00:00 26.3 11 Sudeste 27 Sudeste 0 -- -- 58
2018-08-13 17:00:00 27.7 11 Sudeste 31 Sudeste 0 -- -- 52
2018-08-13 16:00:00 28.1 12 Sudeste 23 Sudeste 0 -- -- 51
2018-08-13 15:00:00 26.8 14 Sudeste 16 Sudeste 0 -- -- 49
2018-08-13 14:00:00 28.3 11 Sudeste 15 Este 0 -- -- 43
2018-08-13 13:00:00 27.5 9 Sudeste 18 Este 0 -- -- 50
2018-08-13 12:00:00 24.7 4 Sudeste 10 Sudeste 0 -- -- 56
2018-08-13 11:00:00 21.8 4 Sudeste 9 Este 0 -- -- 74
2018-08-13 10:00:00 19.2 3 Norte 8 Noroeste 0 -- -- 88
2018-08-13 09:00:00 16.9 5 Norte 13 Norte 0 -- -- 94
2018-08-13 08:00:00 15.2 2 Noroeste 15 Norte 0 -- -- 97
2018-08-13 07:00:00 15 7 Noroeste 12 Noroeste 0 -- -- 98
2018-08-13 06:00:00 15.2 7 Noroeste 13 Noroeste 0 -- -- 98
2018-08-13 05:00:00 15.6 3 Noroeste 10 Noroeste 0 -- -- 99
2018-08-13 04:00:00 16.1 4 Oeste 8 Nordeste 0 -- -- 98
2018-08-13 03:00:00 16.6 3 Oeste 10 Este 0 -- -- 97
2018-08-13 02:00:00 16.7 3 Sudoeste 13 Sudoeste 0 -- -- 97
2018-08-13 01:00:00 17 6 Noroeste 13 Norte 0.2 -- -- 98
2018-08-13 00:00:00 17.4 3 Noroeste 18 Oeste 0 -- -- 97
2018-08-12 23:00:00 17.6 14 Oeste 18 Norte 0 -- -- 97
2018-08-12 22:00:00 17.9 4 Nordeste 27 Oeste 0.6 -- -- 97
2018-08-12 21:00:00 18.1 14 Oeste 40 Sudeste 0 -- -- 97
2018-08-12 20:00:00 18.1 13 Este 37 Este 0.8 -- -- 95
2018-08-12 19:00:00 18.1 13 Sudeste 35 Sudoeste 3 -- -- 94
2018-08-12 18:00:00 18.4 12 Noroeste 44 Oeste 5.4 -- -- 94
2018-08-12 17:00:00 19.7 19 Oeste 31 Oeste 11.8 -- -- 87
2018-08-12 16:00:00 31.4 4 Sudoeste 15 Oeste 0 -- -- 43
2018-08-12 15:00:00 32.3 9 Sudeste 18 Sudeste 0 -- -- 41
2018-08-12 14:00:00 31.5 9 Sudeste 15 Sudeste 0 -- -- 42
2018-08-12 13:00:00 30 8 Sudeste 14 Sudeste 0 -- -- 51
2018-08-12 12:00:00 28.2 6 Sudeste 12 Sudeste 0 -- -- 56
2018-08-12 11:00:00 25.8 4 Oeste 10 Este 0 -- -- 64
2018-08-12 10:00:00 22.8 3 Oeste 8 Sudoeste 0 -- -- 74
2018-08-12 09:00:00 19.8 5 Oeste 7 Noroeste 0 -- -- 86
2018-08-12 08:00:00 17.7 4 Noroeste 8 Noroeste 0 -- -- 92
2018-08-12 07:00:00 17.4 5 Noroeste 8 Noroeste 0 -- -- 92
2018-08-12 06:00:00 18 5 Noroeste 9 Oeste 0 -- -- 91
2018-08-12 05:00:00 18.6 3 Oeste 8 Norte 0 -- -- 89
2018-08-12 04:00:00 19 5 Noroeste 9 Norte 0 -- -- 87
2018-08-12 03:00:00 19.1 7 Oeste 10 Noroeste 0 -- -- 90
2018-08-12 02:00:00 19.8 6 Oeste 13 Noroeste 0 -- -- 88
2018-08-12 01:00:00 20.4 7 Oeste 10 Oeste 0 -- -- 86
2018-08-12 00:00:00 20.9 4 Noroeste 22 Oeste 0 -- -- 86
2018-08-11 23:00:00 21.4 12 Oeste 14 Oeste 0 -- -- 85
2018-08-11 22:00:00 21.9 9 Noroeste 12 Oeste 0 -- -- 82
2018-08-11 21:00:00 23.6 6 Oeste 10 Oeste 0 -- -- 73
2018-08-11 20:00:00 24.7 7 Oeste 9 Oeste 0 -- -- 70
2018-08-11 19:00:00 22.9 4 Noroeste 17 Oeste 0 -- -- 79
2018-08-11 18:00:00 21.6 13 Oeste 21 Oeste 0 -- -- 80
2018-08-11 17:00:00 21.5 11 Oeste 28 Oeste 0 -- -- 81
2018-08-11 16:00:00 21.7 19 Oeste 32 Oeste 0.2 -- -- 81
2018-08-11 15:00:00 30.5 12 Sudeste 18 Sudeste 0 -- -- 41
2018-08-11 14:00:00 30.9 8 Sudeste 14 Sudeste 0 -- -- 41
2018-08-11 13:00:00 29.3 8 Sudeste 16 Sudeste 0 -- -- 46
2018-08-11 12:00:00 27.6 9 Sudeste 14 Sudeste 0 -- -- 51
2018-08-11 11:00:00 24.6 7 Sur 11 Sur 0 -- -- 61
2018-08-11 10:00:00 22.1 6 Sudeste 9 Este 0 -- -- 69
2018-08-11 09:00:00 19.2 2 Oeste 10 Norte 0 -- -- 80
2018-08-11 08:00:00 16.6 3 Noroeste 10 Noroeste 0 -- -- 89
2018-08-11 07:00:00 16.3 6 Noroeste 10 Noroeste 0 -- -- 90
2018-08-11 06:00:00 16.8 5 Noroeste 9 Oeste 0 -- -- 86
2018-08-11 05:00:00 17.3 5 Noroeste 11 Norte 0 -- -- 85
2018-08-11 04:00:00 17.9 7 Oeste 11 Noroeste 0 -- -- 82
2018-08-11 03:00:00 18.8 10 Norte 13 Norte 0 -- -- 80
2018-08-11 02:00:00 19.7 4 Noroeste 14 Oeste 0 -- -- 76
2018-08-11 01:00:00 19.7 9 Oeste 13 Oeste 0 -- -- 76
2018-08-11 00:00:00 20.6 8 Noroeste 11 Noroeste 0 -- -- 73
2018-08-10 23:00:00 22.3 2 Sudeste 8 Sudeste 0 -- -- 67
2018-08-10 22:00:00 23.5 2 Este 13 Sur 0 -- -- 62
2018-08-10 21:00:00 24.9 9 Sudeste 18 Sudeste 0 -- -- 57
2018-08-10 20:00:00 26.8 12 Sur 18 Sur 0 -- -- 50
2018-08-10 19:00:00 27.4 13 Sudeste 20 Sudeste 0 -- -- 47
2018-08-10 18:00:00 27.3 15 Sudeste 26 Sudeste 0 -- -- 48
2018-08-10 17:00:00 28.1 18 Sudeste 29 Sudeste 0 -- -- 43
2018-08-10 16:00:00 27.8 18 Sudeste 30 Sudeste 0 -- -- 45
2018-08-10 15:00:00 26.9 15 Sudeste 27 Sudeste 0 -- -- 47
2018-08-10 14:00:00 27.3 6 Sudeste 12 Nordeste 0 -- -- 44
2018-08-10 13:00:00 25 5 Sur 11 Sur 0 -- -- 53
2018-08-10 12:00:00 23 4 Este 9 Este 0 -- -- 61
2018-08-10 11:00:00 21.4 2 Este 8 Este 0 -- -- 65
2018-08-10 10:00:00 19.5 4 Este 7 Este 0 -- -- 74
2018-08-10 09:00:00 18.4 3 Nordeste 6 Nordeste 0 -- -- 81
2018-08-10 08:00:00 17.9 2 Sudoeste 9 Sudeste 0 -- -- 81
2018-08-10 07:00:00 17.6 3 Sur 8 Sudoeste 0 -- -- 80
2018-08-10 06:00:00 17.6 3 Norte 9 Sudoeste 0.6 -- -- 79
2018-08-10 05:00:00 18 5 Noroeste 9 Oeste 0 -- -- 73
2018-08-10 04:00:00 18.2 4 Oeste 10 Oeste 0 -- -- 65
2018-08-10 03:00:00 18.7 8 Noroeste 12 Oeste 0 -- -- 62
2018-08-10 02:00:00 19.2 9 Noroeste 13 Oeste 0 -- -- 61
2018-08-10 01:00:00 20.2 9 Oeste 15 Oeste 0 -- -- 56
2018-08-10 00:00:00 21.5 10 Oeste 18 Oeste 0 -- -- 53
2018-08-09 23:00:00 23.2 9 Oeste 16 Oeste 0 -- -- 49
2018-08-09 22:00:00 24.7 7 Noroeste 13 Oeste 0 -- -- 46
2018-08-09 21:00:00 26.2 10 Oeste 23 Oeste 0 -- -- 42
2018-08-09 20:00:00 28.7 18 Oeste 28 Oeste 0 -- -- 36
2018-08-09 19:00:00 30.1 20 Oeste 31 Noroeste 0 -- -- 32
2018-08-09 18:00:00 32.4 14 Sudoeste 29 Sudoeste 0 -- -- 32
2018-08-09 17:00:00 32.2 19 Sudoeste 32 Sudoeste 0 -- -- 34
2018-08-09 16:00:00 29.2 6 Norte 26 Norte 0 -- -- 48
2018-08-09 15:00:00 24.2 16 Norte 41 Norte 0 -- -- 61
2018-08-09 14:00:00 22.8 27 Norte 44 Sudeste 0 -- -- 62
2018-08-09 13:00:00 28.5 32 Sudeste 42 Sudeste 0 -- -- 53
2018-08-09 12:00:00 27.2 13 Sudeste 21 Sudeste 0 -- -- 57
2018-08-09 11:00:00 25.4 10 Sudeste 16 Sudeste 0 -- -- 66
2018-08-09 10:00:00 24.1 6 Oeste 11 Oeste 0 -- -- 69
2018-08-09 09:00:00 21.2 2 Oeste 8 Oeste 0 -- -- 80
2018-08-09 08:00:00 19.7 4 Noroeste 10 Oeste 0 -- -- 83
2018-08-09 07:00:00 19.3 8 Oeste 10 Oeste 0 -- -- 85
2018-08-09 06:00:00 19.4 6 Oeste 9 Oeste 0 -- -- 83
2018-08-09 05:00:00 19.1 8 Oeste 12 Oeste 0 -- -- 84
2018-08-09 04:00:00 18.8 5 Noroeste 10 Oeste 0 -- -- 85
2018-08-09 03:00:00 18.8 7 Oeste 12 Oeste 0 -- -- 85
2018-08-09 02:00:00 19.7 13 Oeste 21 Oeste 0 -- -- 82
2018-08-09 01:00:00 20.7 12 Noroeste 25 Este 0.2 -- -- 78
2018-08-09 00:00:00 22.5 12 Sudoeste 31 Este 0 -- -- 67
2018-08-08 23:00:00 23.5 19 Este 44 Sudoeste 0 -- -- 62
2018-08-08 22:00:00 25.1 25 Sur 45 Sudoeste 0 -- -- 61
2018-08-08 21:00:00 26.2 19 Este 44 Sudeste 0 -- -- 56
2018-08-08 20:00:00 27.6 27 Sudeste 49 Sudoeste 0 -- -- 55
2018-08-08 19:00:00 29.4 25 Sur 40 Sudeste 0 -- -- 49
2018-08-08 18:00:00 31.1 19 Sudeste 26 Sudeste 0 -- -- 44
2018-08-08 17:00:00 30.8 17 Sudeste 29 Sudeste 0 -- -- 43
2018-08-08 16:00:00 30.6 16 Sudeste 25 Sudeste 0 -- -- 46
2018-08-08 15:00:00 30.6 15 Sudeste 24 Sudeste 0 -- -- 47
2018-08-08 14:00:00 29.7 12 Sudeste 18 Sudeste 0 -- -- 49
2018-08-08 13:00:00 28.1 7 Sudeste 14 Este 0 -- -- 55
2018-08-08 12:00:00 24 5 Nordeste 10 Nordeste 0 -- -- 61
2018-08-08 11:00:00 21.8 3 Nordeste 9 Este 0 -- -- 67
2018-08-08 10:00:00 19.6 5 Norte 10 Noroeste 0 -- -- 75
2018-08-08 09:00:00 17.8 8 Norte 15 Norte 0 -- -- 80
2018-08-08 08:00:00 16.5 5 Norte 18 Norte 0 -- -- 84
2018-08-08 07:00:00 15.8 9 Noroeste 18 Norte 0 -- -- 85
2018-08-08 06:00:00 16.1 12 Norte 19 Norte 0 -- -- 82
2018-08-08 05:00:00 16.1 8 Norte 15 Norte 0 -- -- 83
2018-08-08 04:00:00 16 12 Norte 17 Norte 0 -- -- 83
2018-08-08 03:00:00 16 13 Noroeste 20 Norte 0 -- -- 85
2018-08-08 02:00:00 16.5 7 Norte 16 Norte 0 -- -- 84
2018-08-08 01:00:00 16.9 16 Norte 21 Norte 0 -- -- 82
2018-08-08 00:00:00 17.5 2 Este 13 Norte 0 -- -- 79
2018-08-07 23:00:00 17.9 11 Norte 15 Norte 0 -- -- 80
2018-08-07 22:00:00 18.7 5 Noroeste 19 Sudoeste 0 -- -- 78
2018-08-07 21:00:00 19.1 7 Sudoeste 72 Noroeste 0.8 -- -- 71
2018-08-07 20:00:00 27.6 15 Sudoeste 59 Noroeste 0 -- -- 47
2018-08-07 19:00:00 29.5 36 Sur 65 Sur 0 -- -- 56
2018-08-07 18:00:00 33.4 11 Sudeste 32 Norte 0 -- -- 39
2018-08-07 17:00:00 34.5 13 Norte 24 Noroeste 0 -- -- 40
2018-08-07 16:00:00 34.1 15 Sudeste 24 Sudeste 0 -- -- 38
2018-08-07 15:00:00 34.6 12 Sudeste 24 Este 0 -- -- 37
2018-08-07 14:00:00 34.2 10 Sudeste 18 Sudeste 0 -- -- 41
2018-08-07 13:00:00 32.1 9 Sudeste 16 Sudeste 0 -- -- 44
2018-08-07 12:00:00 31.5 8 Sudeste 13 Sudeste 0 -- -- 47
2018-08-07 11:00:00 29 4 Este 10 Sudeste 0 -- -- 53
2018-08-07 10:00:00 26 3 Sudoeste 6 Sur 0 -- -- 61
2018-08-07 09:00:00 22.7 2 Norte 8 Oeste 0 -- -- 72
2018-08-07 08:00:00 20.4 8 Oeste 9 Oeste 0 -- -- 78
2018-08-07 07:00:00 20.4 6 Noroeste 10 Norte 0 -- -- 78
2018-08-07 06:00:00 21.2 5 Noroeste 11 Oeste 0 -- -- 74
2018-08-07 05:00:00 21.2 10 Oeste 18 Oeste 0 -- -- 75
2018-08-07 04:00:00 21.9 6 Noroeste 12 Oeste 0 -- -- 73
2018-08-07 03:00:00 22.8 4 Noroeste 13 Noroeste 0 -- -- 69
2018-08-07 02:00:00 23.6 7 Noroeste 9 Norte 0 -- -- 67
2018-08-07 01:00:00 25.6 5 Norte 6 Sudoeste 0 -- -- 62
2018-08-07 00:00:00 27 0 Calma 8 Oeste 0 -- -- 56
2018-08-06 23:00:00 28.2 2 Sudeste 22 Sudoeste 0 -- -- 53
2018-08-06 22:00:00 29.7 12 Sudoeste 27 Sur 0 -- -- 50
2018-08-06 21:00:00 30.6 12 Sudeste 23 Sudeste 0 -- -- 42
2018-08-06 20:00:00 32.3 18 Sudeste 28 Sudeste 0 -- -- 37
2018-08-06 19:00:00 34.4 18 Sudeste 32 Sur 0 -- -- 35
2018-08-06 18:00:00 35.7 18 Sur 26 Sur 0 -- -- 31
2018-08-06 17:00:00 35.3 19 Sudeste 30 Sudeste 0 -- -- 33
2018-08-06 16:00:00 35.8 19 Sudeste 28 Sudeste 0 -- -- 32
2018-08-06 15:00:00 35.7 14 Sudeste 20 Sudeste 0 -- -- 32
2018-08-06 14:00:00 34.9 14 Sudeste 19 Sudeste 0 -- -- 33
2018-08-06 13:00:00 33.7 14 Sudeste 18 Sudeste 0 -- -- 37
2018-08-06 12:00:00 31.7 8 Sudeste 13 Este 0 -- -- 41
2018-08-06 11:00:00 29.6 4 Sudoeste 10 Sur 0 -- -- 44
2018-08-06 10:00:00 26 2 Oeste 6 Sudoeste 0 -- -- 51
2018-08-06 09:00:00 22.6 0 Calma 5 Noroeste 0 -- -- 63
2018-08-06 08:00:00 19.8 5 Noroeste 7 Oeste 0 -- -- 67
2018-08-06 07:00:00 19.8 5 Noroeste 10 Norte 0 -- -- 67
2018-08-06 06:00:00 20.3 6 Noroeste 13 Noroeste 0 -- -- 65
2018-08-06 05:00:00 21.3 7 Noroeste 12 Noroeste 0 -- -- 62
2018-08-06 04:00:00 21.3 9 Noroeste 13 Noroeste 0 -- -- 62
2018-08-06 03:00:00 21.5 10 Noroeste 15 Noroeste 0 -- -- 62
2018-08-06 02:00:00 22.4 8 Noroeste 14 Oeste 0 -- -- 59
2018-08-06 01:00:00 23.4 8 Oeste 14 Oeste 0 -- -- 54
2018-08-06 00:00:00 25.7 7 Noroeste 12 Oeste 0 -- -- 49
2018-08-05 23:00:00 27.7 5 Oeste 18 Sudeste 0 -- -- 41
2018-08-05 22:00:00 29.2 10 Sudeste 18 Sudeste 0 -- -- 45
2018-08-05 21:00:00 30.4 13 Sudeste 24 Sudeste 0 -- -- 40
2018-08-05 20:00:00 31.5 15 Sudeste 27 Sudeste 0 -- -- 38
2018-08-05 19:00:00 32.8 19 Sudeste 30 Sudeste 0 -- -- 34
2018-08-05 18:00:00 34.5 22 Sudeste 33 Este 0 -- -- 33
2018-08-05 17:00:00 35.1 23 Sudeste 31 Sudeste 0 -- -- 33
2018-08-05 16:00:00 34.7 22 Sudeste 30 Sudeste 0 -- -- 34
2018-08-05 15:00:00 34.9 23 Sudeste 31 Sudeste 0 -- -- 36
2018-08-05 14:00:00 35.2 14 Sudeste 21 Sudeste 0 -- -- 31
2018-08-05 13:00:00 34.2 12 Sudeste 16 Sudeste 0 -- -- 34
2018-08-05 12:00:00 32.2 6 Sudeste 12 Este 0 -- -- 37
2018-08-05 11:00:00 29.5 3 Oeste 10 Este 0 -- -- 43
2018-08-05 10:00:00 26.7 3 Sur 9 Este 0 -- -- 51
2018-08-05 09:00:00 22.8 3 Noroeste 8 Noroeste 0 -- -- 60
2018-08-05 08:00:00 20.8 3 Oeste 12 Oeste 0 -- -- 66
2018-08-05 07:00:00 20.7 6 Oeste 8 Noroeste 0 -- -- 66
2018-08-05 06:00:00 21.6 6 Norte 9 Norte 0 -- -- 59
2018-08-05 05:00:00 22.2 9 Oeste 12 Oeste 0 -- -- 62
2018-08-05 04:00:00 22.8 10 Oeste 13 Oeste 0 -- -- 60
2018-08-05 03:00:00 24.2 10 Oeste 12 Oeste 0 -- -- 55
2018-08-05 02:00:00 26.3 2 Norte 5 Sudoeste 0 -- -- 45
2018-08-05 01:00:00 27.4 3 Noroeste 15 Norte 0 -- -- 42
2018-08-05 00:00:00 28.3 5 Nordeste 20 Nordeste 0 -- -- 40
2018-08-04 23:00:00 28.3 7 Norte 15 Norte 0 -- -- 43
2018-08-04 22:00:00 29.7 4 Norte 16 Sudoeste 0 -- -- 40
2018-08-04 21:00:00 32.2 8 Sur 19 Sur 0 -- -- 35
2018-08-04 20:00:00 34.3 12 Sur 32 Sur 0 -- -- 32
2018-08-04 19:00:00 35.8 18 Sudoeste 33 Sudeste 0 -- -- 30
2018-08-04 18:00:00 36.3 17 Sur 28 Sur 0 -- -- 29
2018-08-04 17:00:00 37.6 9 Este 19 Sudeste 0 -- -- 23
2018-08-04 16:00:00 36.2 16 Sudeste 19 Sudeste 0 -- -- 24
2018-08-04 15:00:00 36.7 13 Sudeste 17 Sudeste 0 -- -- 25
2018-08-04 14:00:00 35.7 9 Sudeste 15 Este 0 -- -- 24
2018-08-04 13:00:00 34.6 10 Sudeste 15 Sudeste 0 -- -- 25
2018-08-04 12:00:00 32.4 7 Sudeste 13 Sudeste 0 -- -- 30
2018-08-04 11:00:00 29.6 4 Sur 10 Este 0 -- -- 35
2018-08-04 10:00:00 26 3 Sudoeste 9 Norte 0 -- -- 43
2018-08-04 09:00:00 21.8 7 Noroeste 15 Norte 0 -- -- 52
2018-08-04 08:00:00 19.3 10 Norte 19 Norte 0 -- -- 54
2018-08-04 07:00:00 19.4 15 Norte 22 Norte 0 -- -- 53
2018-08-04 06:00:00 20 8 Noroeste 13 Norte 0 -- -- 53
2018-08-04 05:00:00 21.1 8 Noroeste 14 Noroeste 0 -- -- 57
2018-08-04 04:00:00 22.1 9 Noroeste 14 Noroeste 0 -- -- 57
2018-08-04 03:00:00 23.3 6 Noroeste 13 Oeste 0 -- -- 57
2018-08-04 02:00:00 24 11 Oeste 13 Oeste 0 -- -- 56
2018-08-04 01:00:00 26.3 6 Norte 9 Norte 0 -- -- 53
2018-08-04 00:00:00 26.5 11 Sudeste 17 Sudeste 0 -- -- 57
2018-08-03 23:00:00 28.9 5 Noroeste 13 Oeste 0 -- -- 43
2018-08-03 22:00:00 30.4 4 Norte 16 Este 0 -- -- 41
2018-08-03 21:00:00 31.6 9 Sudeste 26 Sudeste 0 -- -- 40
2018-08-03 20:00:00 32.1 24 Sudeste 29 Sudeste 0 -- -- 42
2018-08-03 19:00:00 35.1 13 Sur 33 Sudeste 0 -- -- 34
2018-08-03 18:00:00 35.2 23 Sudeste 39 Sudeste 0 -- -- 36
2018-08-03 17:00:00 36 24 Sudeste 36 Sudeste 0 -- -- 35
2018-08-03 16:00:00 36.2 24 Sudeste 33 Sudeste 0 -- -- 33
2018-08-03 15:00:00 36.1 15 Sudeste 21 Sudeste 0 -- -- 28
2018-08-03 14:00:00 35.4 14 Sudeste 21 Sudeste 0 -- -- 31
2018-08-03 13:00:00 34.1 14 Sudeste 18 Sudeste 0 -- -- 36
2018-08-03 12:00:00 32.4 8 Sudeste 13 Sudeste 0 -- -- 39
2018-08-03 11:00:00 29.5 2 Sudoeste 8 Sur 0 -- -- 47
2018-08-03 10:00:00 26.6 3 Sudoeste 8 Este 0 -- -- 56
2018-08-03 09:00:00 23.2 2 Sur 9 Noroeste 0 -- -- 65
2018-08-03 08:00:00 19.9 4 Noroeste 13 Norte 0 -- -- 72
2018-08-03 07:00:00 19.6 6 Oeste 11 Oeste 0 -- -- 72
2018-08-03 06:00:00 20.1 8 Oeste 11 Noroeste 0 -- -- 70
2018-08-03 05:00:00 20.4 9 Noroeste 14 Norte 0 -- -- 69
2018-08-03 04:00:00 21.3 5 Oeste 10 Noroeste 0 -- -- 66
2018-08-03 03:00:00 21.7 8 Noroeste 12 Oeste 0 -- -- 64
2018-08-03 02:00:00 22.7 8 Oeste 14 Norte 0 -- -- 61
2018-08-03 01:00:00 24.3 10 Noroeste 14 Noroeste 0 -- -- 56
2018-08-03 00:00:00 25.7 10 Noroeste 12 Noroeste 0 -- -- 51
2018-08-02 23:00:00 27.3 8 Noroeste 14 Norte 0 -- -- 47
2018-08-02 22:00:00 30 6 Este 22 Sudeste 0 -- -- 41
2018-08-02 21:00:00 31.5 15 Sudeste 25 Sudeste 0 -- -- 39
2018-08-02 20:00:00 32.9 18 Sudeste 26 Sudeste 0 -- -- 36
2018-08-02 19:00:00 34.6 20 Sudeste 34 Sudeste 0 -- -- 34
2018-08-02 18:00:00 35.7 18 Sudeste 36 Sudeste 0 -- -- 33
2018-08-02 17:00:00 35.5 23 Sudeste 37 Sudeste 0 -- -- 33
2018-08-02 16:00:00 35.6 23 Sudeste 34 Sudeste 0 -- -- 35
2018-08-02 15:00:00 35.4 25 Sudeste 31 Sudeste 0 -- -- 35
2018-08-02 14:00:00 35.3 12 Sudeste 21 Sudeste 0 -- -- 33
2018-08-02 13:00:00 33.9 14 Sudeste 21 Sudeste 0 -- -- 38
2018-08-02 12:00:00 32.1 9 Sudeste 13 Sudeste 0 -- -- 39
2018-08-02 11:00:00 29 6 Este 12 Sudeste 0 -- -- 45
2018-08-02 10:00:00 25.7 0 Calma 8 Este 0 -- -- 54
2018-08-02 09:00:00 22.1 2 Oeste 13 Noroeste 0 -- -- 64
2018-08-02 08:00:00 19.4 4 Noroeste 9 Oeste 0 -- -- 69
2018-08-02 07:00:00 19.3 8 Oeste 11 Oeste 0 -- -- 68
2018-08-02 06:00:00 19.3 5 Noroeste 12 Norte 0 -- -- 68
2018-08-02 05:00:00 20.4 6 Noroeste 10 Noroeste 0 -- -- 64
2018-08-02 04:00:00 20.8 6 Noroeste 14 Noroeste 0 -- -- 63
2018-08-02 03:00:00 21.1 8 Oeste 12 Noroeste 0 -- -- 62
2018-08-02 02:00:00 21.9 8 Noroeste 12 Oeste 0 -- -- 60
2018-08-02 01:00:00 23.3 3 Oeste 14 Noroeste 0 -- -- 54
2018-08-02 00:00:00 24.1 10 Oeste 15 Oeste 0 -- -- 53
2018-08-01 23:00:00 25.2 10 Noroeste 14 Noroeste 0 -- -- 50
2018-08-01 22:00:00 28.4 7 Norte 12 Norte 0 -- -- 41
2018-08-01 21:00:00 30.5 7 Sudeste 20 Sudeste 0 -- -- 38
2018-08-01 20:00:00 31.7 18 Sudeste 23 Sudeste 0 -- -- 36
2018-08-01 19:00:00 33.1 18 Sudeste 26 Sudeste 0 -- -- 34
2018-08-01 18:00:00 33.8 19 Sudeste 28 Sudeste 0 -- -- 33
2018-08-01 17:00:00 34.5 21 Sudeste 27 Sudeste 0 -- -- 33
2018-08-01 16:00:00 34.4 16 Sudeste 25 Sur 0 -- -- 35
2018-08-01 15:00:00 34.2 15 Sudeste 21 Sudeste 0 -- -- 36
2018-08-01 14:00:00 33.8 13 Sudeste 20 Sudeste 0 -- -- 35
2018-08-01 13:00:00 33.2 12 Sudeste 18 Sudeste 0 -- -- 38
2018-08-01 12:00:00 31.2 8 Sudeste 14 Sudeste 0 -- -- 41
2018-08-01 11:00:00 28.5 4 Sudeste 8 Sudoeste 0 -- -- 46
2018-08-01 10:00:00 25.4 3 Sudoeste 7 Oeste 0 -- -- 53
2018-08-01 09:00:00 21.1 4 Oeste 11 Norte 0 -- -- 62
2018-08-01 08:00:00 18.7 4 Oeste 10 Oeste 0 -- -- 70
2018-08-01 07:00:00 18.9 5 Noroeste 10 Oeste 0 -- -- 65
2018-08-01 06:00:00 18.7 6 Oeste 13 Noroeste 0 -- -- 68
2018-08-01 05:00:00 19.6 5 Noroeste 14 Oeste 0 -- -- 61
2018-08-01 04:00:00 20 8 Noroeste 13 Noroeste 0 -- -- 58
2018-08-01 03:00:00 20.6 7 Noroeste 12 Norte 0 -- -- 58
2018-08-01 02:00:00 20.9 8 Noroeste 14 Noroeste 0 -- -- 56
2018-08-01 01:00:00 21.6 5 Noroeste 12 Noroeste 0 -- -- 55
2018-08-01 00:00:00 22.6 9 Oeste 13 Oeste 0 -- -- 50
2018-07-31 23:00:00 24 9 Oeste 14 Oeste 0 -- -- 47
2018-07-31 22:00:00 26.5 8 Noroeste 11 Oeste 0 -- -- 43
2018-07-31 21:00:00 30.3 8 Sudeste 19 Sudeste 0 -- -- 33
2018-07-31 20:00:00 32.1 16 Sudeste 22 Sudeste 0 -- -- 32
2018-07-31 19:00:00 33.2 15 Sudeste 20 Sudeste 0 -- -- 33
2018-07-31 18:00:00 33.6 15 Sudeste 26 Sudeste 0 -- -- 33
2018-07-31 17:00:00 34 17 Sudeste 28 Sudeste 0 -- -- 33
2018-07-31 16:00:00 33.7 16 Sudeste 27 Sudeste 0 -- -- 38
2018-07-31 15:00:00 34.3 17 Sudeste 27 Sudeste 0 -- -- 38
2018-07-31 14:00:00 33.6 14 Sudeste 22 Sudeste 0 -- -- 39
2018-07-31 13:00:00 32.5 8 Sudeste 17 Sudeste 0 -- -- 42
2018-07-31 12:00:00 30.1 6 Este 11 Este 0 -- -- 48
2018-07-31 11:00:00 28.6 3 Sur 10 Sudeste 0 -- -- 50
2018-07-31 10:00:00 25.4 4 Sudeste 8 Sur 0 -- -- 59
2018-07-31 09:00:00 22.1 3 Nordeste 6 Nordeste 0 -- -- 66
2018-07-31 08:00:00 19.8 2 Noroeste 9 Oeste 0 -- -- 72
2018-07-31 07:00:00 20 4 Oeste 8 Oeste 0 -- -- 69
2018-07-31 06:00:00 19.8 6 Noroeste 12 Oeste 0 -- -- 70
2018-07-31 05:00:00 19.8 7 Oeste 11 Noroeste 0 -- -- 71
2018-07-31 04:00:00 20.4 6 Noroeste 11 Noroeste 0 -- -- 68
2018-07-31 03:00:00 20.6 7 Noroeste 13 Noroeste 0 -- -- 67
2018-07-31 02:00:00 21 6 Noroeste 14 Oeste 0 -- -- 65
2018-07-31 01:00:00 21.8 10 Oeste 14 Oeste 0 -- -- 62
2018-07-31 00:00:00 23.1 5 Noroeste 13 Noroeste 0 -- -- 57
2018-07-30 23:00:00 24.4 9 Oeste 16 Oeste 0 -- -- 54
2018-07-30 22:00:00 26.1 13 Noroeste 16 Noroeste 0 -- -- 53
2018-07-30 21:00:00 30.7 10 Sur 22 Sur 0 -- -- 36
2018-07-30 20:00:00 31.7 14 Sur 24 Sur 0 -- -- 35
2018-07-30 19:00:00 32 14 Sudeste 25 Sudeste 0 -- -- 36
2018-07-30 18:00:00 33.8 13 Sudeste 22 Sudeste 0 -- -- 36
2018-07-30 17:00:00 31.3 8 Sur 29 Sudeste 0 -- -- 42
2018-07-30 16:00:00 32 13 Sudeste 23 Sudeste 0 -- -- 42
2018-07-30 15:00:00 33.7 13 Sudeste 20 Sudeste 0 -- -- 36
2018-07-30 14:00:00 33.1 13 Sudeste 19 Sudeste 0 -- -- 38
2018-07-30 13:00:00 31.5 10 Sudeste 16 Este 0 -- -- 42
2018-07-30 12:00:00 30.2 11 Sudeste 17 Sudeste 0 -- -- 47
2018-07-30 11:00:00 27.5 6 Este 11 Este 0 -- -- 49
2018-07-30 10:00:00 24.4 3 Este 9 Este 0 -- -- 59
2018-07-30 09:00:00 20.9 0 Calma 8 Noroeste 0 -- -- 68
2018-07-30 08:00:00 18.7 3 Noroeste 8 Noroeste 0 -- -- 72
2018-07-30 07:00:00 18.9 3 Oeste 9 Noroeste 0 -- -- 70
2018-07-30 06:00:00 19.3 6 Noroeste 16 Noroeste 0 -- -- 69
2018-07-30 05:00:00 19.8 7 Oeste 12 Norte 0 -- -- 68
2018-07-30 04:00:00 20.3 6 Oeste 13 Oeste 0 -- -- 67
2018-07-30 03:00:00 20.7 11 Noroeste 15 Noroeste 0 -- -- 66
2018-07-30 02:00:00 21.8 9 Oeste 12 Oeste 0 -- -- 64
2018-07-30 01:00:00 22.5 6 Oeste 11 Oeste 0 -- -- 59
2018-07-30 00:00:00 23.7 6 Noroeste 13 Noroeste 0 -- -- 58
2018-07-29 23:00:00 25 6 Noroeste 11 Oeste 0 -- -- 53
2018-07-29 22:00:00 26.5 10 Oeste 13 Oeste 0 -- -- 52
2018-07-29 21:00:00 29.2 10 Sudeste 19 Sudeste 0 -- -- 45
2018-07-29 20:00:00 30.6 14 Sudeste 20 Sudeste 0 -- -- 41
2018-07-29 19:00:00 31.3 15 Sudeste 21 Sudeste 0 -- -- 36
2018-07-29 18:00:00 32.5 15 Sudeste 22 Sudeste 0 -- -- 35
2018-07-29 17:00:00 33 16 Sudeste 24 Sudeste 0 -- -- 35
2018-07-29 16:00:00 32.4 13 Sudeste 20 Sudeste 0 -- -- 37
2018-07-29 15:00:00 33.3 11 Sudeste 17 Sudeste 0 -- -- 35
2018-07-29 14:00:00 32.4 12 Sudeste 18 Sudeste 0 -- -- 38
2018-07-29 13:00:00 30.8 10 Sudeste 18 Sudeste 0 -- -- 46
2018-07-29 12:00:00 29.4 10 Sudeste 17 Este 0 -- -- 49
2018-07-29 11:00:00 27.4 5 Sur 9 Sur 0 -- -- 50
2018-07-29 10:00:00 23.9 3 Sudoeste 6 Sudeste 0 -- -- 57
2018-07-29 09:00:00 20 5 Oeste 8 Oeste 0 -- -- 63
2018-07-29 08:00:00 17.6 3 Noroeste 9 Oeste 0 -- -- 71
2018-07-29 07:00:00 17.3 6 Oeste 8 Oeste 0 -- -- 65
2018-07-29 06:00:00 17.8 5 Oeste 10 Noroeste 0 -- -- 63
2018-07-29 05:00:00 17.7 8 Noroeste 14 Oeste 0 -- -- 63
2018-07-29 04:00:00 18.5 7 Noroeste 12 Oeste 0 -- -- 59
2018-07-29 03:00:00 18.8 6 Noroeste 11 Oeste 0 -- -- 58
2018-07-29 02:00:00 19.5 6 Noroeste 12 Oeste 0 -- -- 54
2018-07-29 01:00:00 20.7 6 Oeste 15 Norte 0 -- -- 51
2018-07-29 00:00:00 21.5 9 Noroeste 15 Norte 0 -- -- 49
2018-07-28 23:00:00 23.4 6 Noroeste 13 Oeste 0 -- -- 45
2018-07-28 22:00:00 25 11 Oeste 14 Oeste 0 -- -- 43
2018-07-28 21:00:00 30.4 7 Oeste 20 Oeste 0 -- -- 33
2018-07-28 20:00:00 32.1 16 Oeste 24 Oeste 0 -- -- 32
2018-07-28 19:00:00 30.8 9 Sudeste 19 Sudeste 0 -- -- 35
2018-07-28 18:00:00 31.8 10 Sudeste 17 Sudeste 0 -- -- 34
2018-07-28 17:00:00 32.7 7 Sudeste 24 Sudeste 0 -- -- 34
2018-07-28 16:00:00 32 10 Sudeste 23 Este 0 -- -- 37
2018-07-28 15:00:00 31.9 17 Sudeste 27 Sudeste 0 -- -- 34
2018-07-28 14:00:00 31.7 16 Sudeste 21 Sudeste 0 -- -- 35
2018-07-28 13:00:00 30.7 12 Sudeste 18 Sudeste 0 -- -- 33
2018-07-28 12:00:00 29.3 11 Sudeste 15 Este 0 -- -- 36
2018-07-28 11:00:00 26.4 5 Sudeste 9 Este 0 -- -- 43
2018-07-28 10:00:00 23 2 Oeste 8 Sudeste 0 -- -- 58
2018-07-28 09:00:00 19.8 4 Noroeste 8 Nordeste 0 -- -- 68
2018-07-28 08:00:00 17.3 6 Noroeste 9 Noroeste 0 -- -- 75
2018-07-28 07:00:00 17.3 5 Oeste 12 Oeste 0 -- -- 74
2018-07-28 06:00:00 18 6 Oeste 11 Noroeste 0 -- -- 72
2018-07-28 05:00:00 18.8 5 Oeste 9 Norte 0 -- -- 70
2018-07-28 04:00:00 19.2 6 Noroeste 14 Oeste 0 -- -- 70
2018-07-28 03:00:00 19.6 8 Noroeste 13 Oeste 0 -- -- 68
2018-07-28 02:00:00 20.5 9 Noroeste 13 Noroeste 0 -- -- 65
2018-07-28 01:00:00 21.7 8 Noroeste 14 Oeste 0 -- -- 63
2018-07-28 00:00:00 23.2 8 Noroeste 15 Oeste 0 -- -- 59
2018-07-27 23:00:00 25.1 7 Noroeste 11 Noroeste 0 -- -- 54
2018-07-27 22:00:00 27.9 5 Sur 13 Sudeste 0 -- -- 46
2018-07-27 21:00:00 29.5 6 Nordeste 23 Sudeste 0 -- -- 42
2018-07-27 20:00:00 30.5 17 Sudeste 35 Sudeste 0 -- -- 40
2018-07-27 19:00:00 31.5 24 Sudeste 32 Sudeste 0 -- -- 39
2018-07-27 18:00:00 33.1 25 Sudeste 37 Este 0 -- -- 34
2018-07-27 17:00:00 33.7 25 Sudeste 37 Sudeste 0 -- -- 34
2018-07-27 16:00:00 33.2 22 Sudeste 29 Sudeste 0 -- -- 36
2018-07-27 15:00:00 33.1 15 Sudeste 23 Sudeste 0 -- -- 35
2018-07-27 14:00:00 32.5 12 Sudeste 19 Sudeste 0 -- -- 35
2018-07-27 13:00:00 32.1 11 Sudeste 16 Sudeste 0 -- -- 37
2018-07-27 12:00:00 30.7 8 Sudeste 14 Sudeste 0 -- -- 41
2018-07-27 11:00:00 28.2 3 Sur 9 Sur 0 -- -- 46
2018-07-27 10:00:00 24.6 3 Oeste 11 Noroeste 0 -- -- 57
2018-07-27 09:00:00 21.2 3 Oeste 9 Norte 0 -- -- 68
2018-07-27 08:00:00 18.9 6 Noroeste 11 Oeste 0 -- -- 74
2018-07-27 07:00:00 19.2 8 Oeste 13 Noroeste 0 -- -- 71
2018-07-27 06:00:00 20.1 8 Noroeste 12 Oeste 0 -- -- 68
2018-07-27 05:00:00 21.2 6 Norte 24 Oeste 0 -- -- 65
2018-07-27 04:00:00 21.5 16 Oeste 24 Oeste 0 -- -- 64
2018-07-27 03:00:00 21.9 10 Norte 15 Oeste 0 -- -- 63
2018-07-27 02:00:00 22.1 9 Oeste 13 Oeste 0 -- -- 62
2018-07-27 01:00:00 22.4 9 Noroeste 14 Noroeste 0 -- -- 60
2018-07-27 00:00:00 23.4 6 Noroeste 15 Norte 0 -- -- 55
2018-07-26 23:00:00 24.9 9 Noroeste 13 Norte 0 -- -- 50
2018-07-26 22:00:00 27.3 8 Norte 12 Norte 0 -- -- 45
2018-07-26 21:00:00 29.7 7 Este 18 Sudeste 0 -- -- 40
2018-07-26 20:00:00 32.5 13 Sur 27 Sur 0 -- -- 30
2018-07-26 19:00:00 33.3 16 Sudeste 28 Sur 0 -- -- 32
2018-07-26 18:00:00 34.5 11 Sudeste 22 Sudeste 0 -- -- 33
2018-07-26 17:00:00 33.5 12 Sudeste 18 Sudeste 0 -- -- 34
2018-07-26 16:00:00 32.7 10 Sudeste 18 Sudeste 0 -- -- 31
2018-07-26 15:00:00 34.5 12 Sudeste 19 Sudeste 0 -- -- 33
2018-07-26 14:00:00 33.3 14 Sudeste 18 Sudeste 0 -- -- 36
2018-07-26 13:00:00 31.9 9 Sudeste 14 Sudeste 0 -- -- 41
2018-07-26 12:00:00 30.1 8 Sudeste 12 Sudeste 0 -- -- 44
2018-07-26 11:00:00 27.2 4 Sudeste 10 Sudeste 0 -- -- 56
2018-07-26 10:00:00 23.8 4 Este 8 Sur 0 -- -- 65
2018-07-26 09:00:00 21.1 0 Calma 8 Norte 0 -- -- 76
2018-07-26 08:00:00 18.4 3 Norte 10 Oeste 0 -- -- 83
2018-07-26 07:00:00 17.5 7 Oeste 15 Norte 0 -- -- 86
2018-07-26 06:00:00 18.1 6 Oeste 14 Norte 0 -- -- 84
2018-07-26 05:00:00 18.2 9 Noroeste 13 Noroeste 0 -- -- 84
2018-07-26 04:00:00 19 5 Noroeste 12 Noroeste 0 -- -- 81
2018-07-26 03:00:00 19.5 6 Noroeste 18 Noroeste 0 -- -- 81
2018-07-26 02:00:00 20.2 10 Noroeste 15 Noroeste 0 -- -- 79
2018-07-26 01:00:00 21.2 8 Noroeste 20 Norte 0 -- -- 75
2018-07-26 00:00:00 21.8 10 Norte 21 Norte 0 -- -- 73
2018-07-25 23:00:00 23.3 14 Noroeste 21 Norte 0 -- -- 68
2018-07-25 22:00:00 24.5 6 Norte 23 Norte 0 -- -- 66
2018-07-25 21:00:00 26.3 18 Norte 24 Norte 0 -- -- 61
2018-07-25 20:00:00 27.9 13 Norte 18 Norte 0 -- -- 55
2018-07-25 19:00:00 28.1 12 Norte 23 Norte 0 -- -- 53
2018-07-25 18:00:00 27.4 12 Norte 37 Norte 0 -- -- 56
2018-07-25 17:00:00 26.8 22 Norte 39 Norte 0 -- -- 56
2018-07-25 16:00:00 31.9 18 Sudeste 32 Sudeste 0 -- -- 39
2018-07-25 15:00:00 32.8 16 Sudeste 26 Sudeste 0 -- -- 40
2018-07-25 14:00:00 31.8 14 Sudeste 19 Sudeste 0 -- -- 40
2018-07-25 13:00:00 30.5 9 Sudeste 14 Sudeste 0 -- -- 44
2018-07-25 12:00:00 28.3 6 Sudeste 11 Este 0 -- -- 50
2018-07-25 11:00:00 25.8 6 Sudeste 10 Este 0 -- -- 56
2018-07-25 10:00:00 22.8 0 Calma 9 Este 0 -- -- 68
2018-07-25 09:00:00 19.9 5 Sudeste 8 Sudeste 0 -- -- 78
2018-07-25 08:00:00 17.3 2 Oeste 8 Noroeste 0 -- -- 82
2018-07-25 07:00:00 17.2 5 Oeste 8 Oeste 0 -- -- 82
2018-07-25 06:00:00 17.4 6 Oeste 8 Noroeste 0 -- -- 84
2018-07-25 05:00:00 18 3 Oeste 9 Norte 0 -- -- 81
2018-07-25 04:00:00 18.3 5 Oeste 10 Oeste 0 -- -- 82
2018-07-25 03:00:00 18.6 7 Oeste 11 Noroeste 0 -- -- 82
2018-07-25 02:00:00 19.2 8 Noroeste 14 Oeste 0 -- -- 81
2018-07-25 01:00:00 19.6 11 Oeste 17 Oeste 0 -- -- 81
2018-07-25 00:00:00 21 9 Noroeste 15 Oeste 0 -- -- 75
2018-07-24 23:00:00 23 10 Oeste 13 Oeste 0 -- -- 74
2018-07-24 22:00:00 25.1 6 Nordeste 23 Sur 0 -- -- 64
2018-07-24 21:00:00 24.8 17 Oeste 21 Oeste 0 -- -- 72
2018-07-24 20:00:00 26.6 13 Oeste 18 Oeste 0 -- -- 62
2018-07-24 19:00:00 27.7 16 Oeste 19 Oeste 0 -- -- 56
2018-07-24 18:00:00 29 14 Oeste 23 Oeste 0 -- -- 52
2018-07-24 17:00:00 27.1 19 Oeste 28 Oeste 0 -- -- 63
2018-07-24 16:00:00 24.7 14 Oeste 27 Oeste 3.2 -- -- 84
2018-07-24 15:00:00 22.8 26 Oeste 38 Noroeste 1 -- -- 77
2018-07-24 14:00:00 29.6 13 Sudeste 21 Sudeste 0 -- -- 43
2018-07-24 13:00:00 31.9 9 Sudeste 16 Sudeste 0 -- -- 43
2018-07-24 12:00:00 29.7 7 Sudeste 12 Sudeste 0 -- -- 45
2018-07-24 11:00:00 27.6 5 Sudeste 10 Sur 0 -- -- 50
2018-07-24 10:00:00 24.5 3 Norte 8 Sudeste 0 -- -- 57
2018-07-24 09:00:00 21 0 Calma 8 Oeste 0 -- -- 68
2018-07-24 08:00:00 17.8 5 Noroeste 8 Oeste 0 -- -- 73
2018-07-24 07:00:00 17.6 6 Noroeste 8 Noroeste 0 -- -- 71
2018-07-24 06:00:00 18.2 6 Norte 10 Norte 0 -- -- 71
2018-07-24 05:00:00 18.6 8 Oeste 13 Noroeste 0 -- -- 67
2018-07-24 04:00:00 18.9 8 Noroeste 12 Noroeste 0 -- -- 66
2018-07-24 03:00:00 19.2 7 Noroeste 15 Noroeste 0 -- -- 65
2018-07-24 02:00:00 19.5 8 Noroeste 14 Oeste 0 -- -- 63
2018-07-24 01:00:00 20.6 6 Noroeste 12 Noroeste 0 -- -- 58
2018-07-24 00:00:00 21.8 7 Oeste 12 Oeste 0 -- -- 54
2018-07-23 23:00:00 22.9 10 Oeste 13 Oeste 0 -- -- 52
2018-07-23 22:00:00 25.3 9 Oeste 12 Oeste 0 -- -- 47
2018-07-23 21:00:00 29.3 9 Sur 12 Sur 0 -- -- 44
2018-07-23 20:00:00 30.3 10 Sudeste 22 Sudeste 0 -- -- 41
2018-07-23 19:00:00 30.7 19 Sudeste 24 Sudeste 0 -- -- 39
2018-07-23 18:00:00 31.3 16 Sudeste 22 Sudeste 0 -- -- 38
2018-07-23 17:00:00 31.3 17 Sudeste 24 Sudeste 0 -- -- 39
2018-07-23 16:00:00 30.8 19 Sudeste 26 Sudeste 0 -- -- 41
2018-07-23 15:00:00 30.1 19 Sudeste 27 Sudeste 0 -- -- 42
2018-07-23 14:00:00 29.7 14 Sudeste 22 Sudeste 0 -- -- 41
2018-07-23 13:00:00 28.6 13 Sudeste 18 Sudeste 0 -- -- 44
2018-07-23 12:00:00 26.8 11 Sudeste 17 Sudeste 0 -- -- 48
2018-07-23 11:00:00 24.3 6 Sudeste 11 Sudeste 0 -- -- 53
2018-07-23 10:00:00 20.8 5 Este 11 Este 0 -- -- 63
2018-07-23 09:00:00 17.6 3 Noroeste 9 Este 0 -- -- 74
2018-07-23 08:00:00 14.4 4 Oeste 8 Oeste 0 -- -- 84
2018-07-23 07:00:00 14.2 6 Noroeste 12 Noroeste 0 -- -- 84
2018-07-23 06:00:00 14.4 11 Noroeste 15 Noroeste 0 -- -- 83
2018-07-23 05:00:00 15.1 7 Noroeste 10 Noroeste 0 -- -- 82
2018-07-23 04:00:00 15.7 7 Oeste 12 Oeste 0 -- -- 82
2018-07-23 03:00:00 16.4 8 Noroeste 13 Oeste 0 -- -- 78
2018-07-23 02:00:00 16.9 9 Oeste 12 Oeste 0 -- -- 79
2018-07-23 01:00:00 17.7 8 Oeste 13 Oeste 0 -- -- 80
2018-07-23 00:00:00 18.4 8 Oeste 12 Oeste 0 -- -- 81
2018-07-22 23:00:00 19.5 10 Oeste 12 Oeste 0 -- -- 80
2018-07-22 22:00:00 20.8 7 Oeste 15 Oeste 0 -- -- 75
2018-07-22 21:00:00 23.5 9 Oeste 15 Oeste 0 -- -- 63
2018-07-22 20:00:00 25.5 6 Oeste 11 Oeste 0 -- -- 56
2018-07-22 19:00:00 24.5 8 Oeste 21 Oeste 0 -- -- 60
2018-07-22 18:00:00 23 12 Oeste 17 Oeste 0 -- -- 68
2018-07-22 17:00:00 22.7 6 Oeste 35 Oeste 0 -- -- 65
2018-07-22 16:00:00 25.2 13 Sudeste 37 Oeste 0 -- -- 50
2018-07-22 15:00:00 24.5 21 Sudeste 36 Sudeste 0 -- -- 51
2018-07-22 14:00:00 24.6 26 Sudeste 35 Sudeste 0 -- -- 54
2018-07-22 13:00:00 25.7 12 Sudeste 21 Sudeste 0 -- -- 43
2018-07-22 12:00:00 22.8 8 Sudeste 15 Sudeste 0 -- -- 53
2018-07-22 11:00:00 21.8 9 Sudeste 13 Sudeste 0 -- -- 59
2018-07-22 10:00:00 18.3 2 Sudoeste 5 Sur 0 -- -- 71
2018-07-22 09:00:00 16 2 Oeste 6 Noroeste 0 -- -- 80
2018-07-22 08:00:00 15.4 3 Norte 7 Norte 0 -- -- 80
2018-07-22 07:00:00 15.7 3 Norte 7 Noroeste 0 -- -- 77
2018-07-22 06:00:00 16.1 2 Noroeste 6 Noroeste 0 -- -- 75
2018-07-22 05:00:00 16.6 5 Oeste 6 Oeste 0 -- -- 71
2018-07-22 04:00:00 17.7 3 Norte 7 Sudeste 0 -- -- 65
2018-07-22 03:00:00 18.1 4 Sur 16 Sur 0 -- -- 61
2018-07-22 02:00:00 19.2 14 Sudeste 19 Sudeste 0 -- -- 57
2018-07-22 01:00:00 19.5 6 Sudoeste 13 Oeste 0 -- -- 64
2018-07-22 00:00:00 20.1 8 Oeste 11 Noroeste 0 -- -- 59
2018-07-21 23:00:00 21.2 2 Nordeste 14 Sudoeste 0 -- -- 54
2018-07-21 22:00:00 21.5 9 Sudoeste 22 Sudoeste 0 -- -- 53
2018-07-21 21:00:00 22.8 13 Oeste 21 Oeste 0 -- -- 51
2018-07-21 20:00:00 24.2 16 Oeste 29 Oeste 0 -- -- 44
2018-07-21 19:00:00 25.3 24 Oeste 34 Oeste 0 -- -- 44
2018-07-21 18:00:00 27.2 17 Oeste 28 Oeste 0 -- -- 42
2018-07-21 17:00:00 26.3 19 Sudeste 38 Sudeste 0 -- -- 46
2018-07-21 16:00:00 25 14 Sudeste 36 Este 0 -- -- 51
2018-07-21 15:00:00 24.8 24 Sudeste 36 Sudeste 0 -- -- 55
2018-07-21 14:00:00 24.9 26 Sudeste 39 Sudeste 0 -- -- 58
2018-07-21 13:00:00 24.4 23 Sudeste 35 Sudeste 0 -- -- 60
2018-07-21 12:00:00 24.1 20 Sudeste 26 Sudeste 0 -- -- 59
2018-07-21 11:00:00 22.4 10 Sudeste 17 Este 0 -- -- 64
2018-07-21 10:00:00 20.2 7 Sudeste 13 Este 0 -- -- 70
2018-07-21 09:00:00 17.9 5 Este 11 Este 0 -- -- 79
2018-07-21 08:00:00 15.6 0 Calma 9 Norte 0 -- -- 81
2018-07-21 07:00:00 15.2 3 Noroeste 6 Norte 0 -- -- 86
2018-07-21 06:00:00 15.8 4 Noroeste 10 Norte 0 -- -- 83
2018-07-21 05:00:00 16.2 6 Noroeste 15 Oeste 0 -- -- 82
2018-07-21 04:00:00 16.6 9 Noroeste 16 Oeste 0 -- -- 77
2018-07-21 03:00:00 18.5 5 Noroeste 10 Noroeste 0 -- -- 70
2018-07-21 02:00:00 19.2 4 Nordeste 15 Noroeste 0 -- -- 67
2018-07-21 01:00:00 20.9 6 Sur 17 Sur 0 -- -- 61
2018-07-21 00:00:00 21.9 9 Oeste 18 Sudoeste 0 -- -- 59
2018-07-20 23:00:00 22.9 9 Sudoeste 27 Noroeste 0 -- -- 57
2018-07-20 22:00:00 23.6 12 Oeste 24 Sudoeste 0 -- -- 57
2018-07-20 21:00:00 26.3 14 Oeste 23 Oeste 0 -- -- 50
2018-07-20 20:00:00 27.5 17 Oeste 30 Oeste 0 -- -- 47
2018-07-20 19:00:00 28.9 16 Sudoeste 23 Sur 0 -- -- 38
2018-07-20 18:00:00 29.4 14 Sudeste 33 Sudeste 0 -- -- 43
2018-07-20 17:00:00 30.1 19 Sudeste 36 Sudeste 0 -- -- 42
2018-07-20 16:00:00 29.8 25 Sudeste 38 Sudeste 0 -- -- 48
2018-07-20 15:00:00 29.5 24 Sudeste 31 Sudeste 0 -- -- 50
2018-07-20 14:00:00 29.9 18 Sudeste 24 Sudeste 0 -- -- 44
2018-07-20 13:00:00 29.2 12 Sudeste 19 Sudeste 0 -- -- 42
2018-07-20 12:00:00 27.7 9 Sudeste 15 Este 0 -- -- 47
2018-07-20 11:00:00 25.9 6 Sudeste 11 Sudeste 0 -- -- 51
2018-07-20 10:00:00 23.6 4 Sur 10 Sudeste 0 -- -- 64
2018-07-20 09:00:00 20.6 0 Calma 8 Noroeste 0 -- -- 73
2018-07-20 08:00:00 17.8 7 Noroeste 12 Noroeste 0 -- -- 83
2018-07-20 07:00:00 17.5 7 Noroeste 12 Noroeste 0 -- -- 83
2018-07-20 06:00:00 18.1 5 Norte 10 Oeste 0 -- -- 80
2018-07-20 05:00:00 19.2 6 Oeste 7 Oeste 0 -- -- 76
2018-07-20 04:00:00 20.2 4 Noroeste 13 Oeste 0 -- -- 71
2018-07-20 03:00:00 21 7 Oeste 12 Norte 0 -- -- 67
2018-07-20 02:00:00 21.9 7 Noroeste 11 Norte 0 -- -- 65
2018-07-20 01:00:00 23.5 8 Noroeste 12 Norte 0 -- -- 55
2018-07-20 00:00:00 24.6 0 Calma 7 Sudoeste 0 -- -- 54